createdAt,value
2019-03-16T00:00:20.532Z,95.40
2019-03-16T00:02:49.218Z,95.60
2019-03-16T00:05:18.109Z,95.60
2019-03-16T00:07:46.898Z,95.60
2019-03-16T00:10:15.786Z,95.40
2019-03-16T00:12:44.680Z,95.20
2019-03-16T00:15:13.568Z,95.40
2019-03-16T00:17:42.265Z,95.40
2019-03-16T00:20:12.238Z,95.50
2019-03-16T00:22:41.166Z,95.60
2019-03-16T00:25:10.551Z,95.40
2019-03-16T00:27:39.556Z,95.30
2019-03-16T00:30:15.415Z,95.30
2019-03-16T00:32:44.199Z,95.50
2019-03-16T00:35:12.988Z,95.30
2019-03-16T00:37:41.775Z,95.40
2019-03-16T00:40:13.021Z,95.60
2019-03-16T00:42:41.810Z,95.30
2019-03-16T00:45:12.014Z,95.50
2019-03-16T00:47:40.924Z,95.70
2019-03-16T00:50:11.293Z,95.60
2019-03-16T00:52:40.327Z,95.50
2019-03-16T00:55:10.767Z,95.70
2019-03-16T00:57:39.759Z,95.70
2019-03-16T01:00:11.726Z,95.50
2019-03-16T01:02:40.614Z,95.50
2019-03-16T01:05:09.848Z,95.40
2019-03-16T01:07:38.701Z,95.60
2019-03-16T01:10:09.041Z,95.60
2019-03-16T01:12:37.915Z,95.50
2019-03-16T01:15:09.454Z,95.50
2019-03-16T01:17:38.362Z,95.60
2019-03-16T01:20:09.605Z,95.80
2019-03-16T01:22:38.495Z,95.70
2019-03-16T01:25:08.091Z,95.60
2019-03-16T01:27:36.992Z,95.30
2019-03-16T01:30:09.062Z,95.20
2019-03-16T01:32:40.805Z,95.20
2019-03-16T01:35:08.298Z,95.10
2019-03-16T01:37:37.108Z,95.20
2019-03-16T01:40:08.717Z,95.20
2019-03-16T01:42:37.709Z,95.10
2019-03-16T01:45:08.843Z,94.90
2019-03-16T01:47:37.645Z,95.10
2019-03-16T01:50:09.615Z,95.60
2019-03-16T01:52:38.495Z,96.20
2019-03-16T01:55:09.001Z,96.70
2019-03-16T01:57:37.811Z,97.00
2019-03-16T02:00:11.516Z,97.20
2019-03-16T02:02:53.810Z,97.20
2019-03-16T02:05:10.937Z,97.10
2019-03-16T02:07:39.823Z,97.30
2019-03-16T02:10:09.829Z,96.90
2019-03-16T02:12:38.628Z,96.80
2019-03-16T02:15:09.128Z,96.70
2019-03-16T02:17:37.946Z,96.70
2019-03-16T02:20:08.455Z,96.80
2019-03-16T02:22:37.364Z,96.80
2019-03-16T02:25:07.151Z,96.80
2019-03-16T02:27:36.172Z,96.80
2019-03-16T02:30:07.723Z,96.80
2019-03-16T02:32:36.616Z,96.80
2019-03-16T02:35:07.608Z,96.70
2019-03-16T02:37:36.650Z,96.70
2019-03-16T02:40:10.033Z,96.70
2019-03-16T02:42:38.847Z,96.70
2019-03-16T02:45:09.434Z,96.60
2019-03-16T02:47:38.279Z,96.60
2019-03-16T02:50:11.354Z,96.50
2019-03-16T02:52:40.137Z,96.70
2019-03-16T02:55:10.051Z,96.60
2019-03-16T02:57:38.938Z,96.60
2019-03-16T03:00:13.040Z,96.70
2019-03-16T03:02:42.040Z,96.60
2019-03-16T03:05:11.251Z,96.50
2019-03-16T03:07:40.129Z,96.60
2019-03-16T03:10:14.244Z,96.60
2019-03-16T03:12:43.235Z,96.50
2019-03-16T03:15:13.762Z,96.60
2019-03-16T03:17:42.552Z,96.60
2019-03-16T03:20:11.751Z,96.60
2019-03-16T03:22:40.643Z,96.50
2019-03-16T03:25:09.635Z,96.30
2019-03-16T03:27:38.627Z,96.40
2019-03-16T03:30:10.712Z,96.60
2019-03-16T03:32:39.730Z,96.50
2019-03-16T03:35:10.061Z,96.50
2019-03-16T03:37:38.997Z,96.40
2019-03-16T03:40:10.225Z,96.70
2019-03-16T03:42:39.149Z,96.20
2019-03-16T03:45:14.663Z,96.20
2019-03-16T03:47:43.679Z,96.20
2019-03-16T03:50:13.754Z,96.20
2019-03-16T03:52:42.584Z,96.20
2019-03-16T03:55:13.448Z,96.20
2019-03-16T03:57:42.823Z,95.90
2019-03-16T04:00:16.731Z,96.00
2019-03-16T04:02:45.516Z,95.90
2019-03-16T04:05:14.404Z,95.70
2019-03-16T04:08:02.547Z,95.80
2019-03-16T04:10:31.340Z,95.90
2019-03-16T04:13:00.124Z,96.00
2019-03-16T04:15:28.933Z,95.80
2019-03-16T04:17:57.700Z,95.80
2019-03-16T04:20:26.495Z,96.10
2019-03-16T04:22:55.382Z,95.90
2019-03-16T04:25:24.065Z,96.00
2019-03-16T04:27:53.061Z,96.00
2019-03-16T04:30:21.950Z,95.90
2019-03-16T04:32:50.735Z,95.80
2019-03-16T04:35:19.628Z,95.70
2019-03-16T04:37:48.413Z,95.60
2019-03-16T04:40:17.366Z,95.60
2019-03-16T04:42:46.297Z,95.50
2019-03-16T04:45:15.191Z,95.50
2019-03-16T04:47:43.877Z,95.60
2019-03-16T04:50:13.174Z,95.60
2019-03-16T04:52:42.175Z,95.60
2019-03-16T04:55:11.383Z,95.50
2019-03-16T04:57:40.357Z,95.50
2019-03-16T05:00:11.501Z,95.50
2019-03-16T05:02:40.288Z,95.50
2019-03-16T05:05:09.284Z,95.50
2019-03-16T05:07:38.071Z,95.40
2019-03-16T05:10:09.649Z,95.30
2019-03-16T05:12:38.521Z,95.30
2019-03-16T05:15:08.727Z,95.20
2019-03-16T05:17:37.626Z,94.90
2019-03-16T05:20:09.486Z,94.90
2019-03-16T05:22:38.381Z,94.70
2019-03-16T05:25:10.034Z,94.40
2019-03-16T05:27:38.926Z,94.50
2019-03-16T05:30:12.555Z,94.40
2019-03-16T05:32:41.412Z,94.20
2019-03-16T05:35:10.308Z,94.30
2019-03-16T05:37:39.193Z,94.20
2019-03-16T05:40:09.814Z,94.10
2019-03-16T05:42:38.820Z,93.90
2019-03-16T05:45:09.030Z,93.60
2019-03-16T05:47:37.730Z,93.60
2019-03-16T05:50:11.899Z,93.50
2019-03-16T05:52:40.732Z,93.50
2019-03-16T05:55:09.808Z,93.40
2019-03-16T05:57:38.722Z,93.30
2019-03-16T06:00:10.877Z,93.00
2019-03-16T06:02:39.876Z,92.80
2019-03-16T06:05:10.816Z,92.70
2019-03-16T06:07:39.195Z,92.70
2019-03-16T06:10:12.303Z,92.50
2019-03-16T06:12:41.074Z,92.40
2019-03-16T06:15:11.037Z,92.40
2019-03-16T06:17:39.978Z,92.30
2019-03-16T06:20:13.693Z,92.20
2019-03-16T06:22:42.574Z,92.10
2019-03-16T06:25:11.459Z,92.30
2019-03-16T06:27:40.352Z,92.20
2019-03-16T06:30:13.769Z,92.20
2019-03-16T06:32:42.640Z,92.30
2019-03-16T06:35:24.047Z,92.10
2019-03-16T06:37:41.852Z,92.20
2019-03-16T06:40:11.344Z,92.00
2019-03-16T06:42:40.259Z,91.90
2019-03-16T06:45:11.226Z,91.90
2019-03-16T06:47:40.180Z,92.00
2019-03-16T06:50:11.726Z,91.60
2019-03-16T06:52:40.622Z,91.30
2019-03-16T06:55:09.511Z,91.20
2019-03-16T06:57:38.301Z,91.00
2019-03-16T07:00:14.633Z,90.70
2019-03-16T07:02:43.455Z,90.50
2019-03-16T07:05:13.311Z,90.40
2019-03-16T07:07:42.157Z,90.60
2019-03-16T07:10:12.427Z,90.10
2019-03-16T07:12:41.478Z,90.10
2019-03-16T07:15:12.312Z,90.20
2019-03-16T07:17:41.102Z,89.90
2019-03-16T07:20:11.810Z,89.50
2019-03-16T07:22:40.826Z,89.80
2019-03-16T07:25:09.822Z,89.60
2019-03-16T07:27:38.711Z,89.60
2019-03-16T07:30:10.664Z,89.50
2019-03-16T07:32:39.564Z,89.50
2019-03-16T07:35:10.176Z,89.50
2019-03-16T07:37:39.206Z,89.20
2019-03-16T07:40:12.890Z,89.00
2019-03-16T07:42:42.687Z,88.90
2019-03-16T07:45:12.693Z,88.90
2019-03-16T07:47:41.406Z,89.00
2019-03-16T07:50:12.335Z,88.90
2019-03-16T07:52:41.333Z,88.70
2019-03-16T07:55:11.150Z,88.90
2019-03-16T07:57:40.947Z,88.90
2019-03-16T08:00:13.307Z,89.00
2019-03-16T08:02:42.432Z,88.70
2019-03-16T08:05:17.949Z,88.20
2019-03-16T08:07:42.165Z,87.70
2019-03-16T08:10:11.662Z,87.30
2019-03-16T08:12:40.654Z,87.50
2019-03-16T08:15:30.537Z,87.30
2019-03-16T08:17:59.611Z,86.90
2019-03-16T08:20:31.300Z,87.10
2019-03-16T08:22:59.151Z,87.20
2019-03-16T08:25:27.941Z,86.30
2019-03-16T08:27:56.728Z,86.00
2019-03-16T08:30:25.625Z,85.40
2019-03-16T08:32:54.616Z,84.90
2019-03-16T08:35:23.400Z,83.20
2019-03-16T08:37:52.291Z,82.80
2019-03-16T08:40:21.909Z,81.60
2019-03-16T08:42:51.570Z,81.00
2019-03-16T08:45:20.908Z,79.90
2019-03-16T08:47:49.594Z,79.90
2019-03-16T08:50:18.487Z,79.90
2019-03-16T08:52:47.380Z,79.50
2019-03-16T08:55:16.380Z,79.60
2019-03-16T08:57:45.158Z,80.40
2019-03-16T09:00:15.212Z,80.00
2019-03-16T09:02:44.175Z,81.20
2019-03-16T09:05:13.048Z,80.00
2019-03-16T09:07:41.949Z,80.30
2019-03-16T09:10:11.245Z,79.30
2019-03-16T09:12:40.138Z,79.20
2019-03-16T09:15:11.896Z,79.50
2019-03-16T09:17:40.891Z,79.20
2019-03-16T09:20:10.179Z,79.70
2019-03-16T09:22:39.082Z,79.60
2019-03-16T09:25:09.800Z,79.70
2019-03-16T09:27:38.706Z,80.00
2019-03-16T09:30:18.243Z,80.00
2019-03-16T09:32:47.134Z,79.70
2019-03-16T09:35:15.929Z,79.00
2019-03-16T09:37:44.815Z,79.10
2019-03-16T09:40:13.923Z,78.90
2019-03-16T09:42:42.699Z,77.80
2019-03-16T09:45:12.621Z,78.20
2019-03-16T09:47:41.506Z,78.10
2019-03-16T09:50:11.521Z,78.40
2019-03-16T09:52:40.632Z,78.60
2019-03-16T09:55:10.967Z,79.40
2019-03-16T09:57:39.874Z,79.10
2019-03-16T10:00:14.347Z,79.10
2019-03-16T10:02:43.137Z,79.50
2019-03-16T10:05:12.027Z,79.40
2019-03-16T10:07:40.814Z,79.50
2019-03-16T10:10:16.259Z,80.40
2019-03-16T10:12:45.250Z,80.60
2019-03-16T10:15:14.697Z,81.00
2019-03-16T10:17:43.556Z,81.30
2019-03-16T10:20:15.407Z,80.90
2019-03-16T10:22:44.301Z,81.40
2019-03-16T10:25:13.190Z,81.70
2019-03-16T10:27:42.084Z,83.00
2019-03-16T10:30:12.678Z,82.50
2019-03-16T10:32:41.597Z,83.60
2019-03-16T10:35:10.591Z,83.90
2019-03-16T10:37:39.482Z,83.90
2019-03-16T10:40:10.872Z,83.90
2019-03-16T10:42:39.919Z,83.00
2019-03-16T10:45:10.313Z,83.50
2019-03-16T10:47:39.140Z,83.30
2019-03-16T10:50:12.922Z,82.40
2019-03-16T10:52:42.041Z,82.40
2019-03-16T10:55:11.239Z,82.00
2019-03-16T10:57:40.247Z,81.50
2019-03-16T11:00:12.117Z,81.10
2019-03-16T11:02:41.094Z,81.00
2019-03-16T11:05:10.306Z,79.80
2019-03-16T11:07:39.073Z,78.80
2019-03-16T11:10:11.031Z,78.40
2019-03-16T11:12:40.229Z,78.10
2019-03-16T11:15:10.657Z,78.40
2019-03-16T11:17:39.869Z,79.10
2019-03-16T11:20:10.517Z,78.80
2019-03-16T11:22:39.691Z,78.60
2019-03-16T11:25:09.072Z,78.10
2019-03-16T11:27:38.283Z,77.80
2019-03-16T11:30:16.292Z,77.70
2019-03-16T11:32:45.387Z,76.80
2019-03-16T11:35:19.572Z,75.80
2019-03-16T11:37:48.492Z,76.30
2019-03-16T11:40:20.758Z,76.00
2019-03-16T11:42:49.651Z,76.00
2019-03-16T11:45:18.849Z,76.00
2019-03-16T11:47:49.122Z,75.80
2019-03-16T11:50:18.164Z,75.50
2019-03-16T11:52:47.156Z,75.20
2019-03-16T11:55:15.955Z,74.10
2019-03-16T11:57:44.735Z,75.00
2019-03-16T12:00:14.536Z,75.00
2019-03-16T12:02:43.435Z,75.30
2019-03-16T12:05:12.886Z,75.00
2019-03-16T12:07:41.939Z,73.80
2019-03-16T12:10:12.092Z,74.10
2019-03-16T12:12:40.956Z,74.40
2019-03-16T12:15:14.171Z,74.10
2019-03-16T12:17:43.129Z,74.40
2019-03-16T12:20:13.662Z,73.70
2019-03-16T12:22:44.849Z,74.20
2019-03-16T12:25:15.775Z,74.30
2019-03-16T12:27:47.140Z,73.60
2019-03-16T12:30:16.692Z,73.20
2019-03-16T12:32:45.939Z,74.30
2019-03-16T12:35:15.191Z,73.40
2019-03-16T12:37:44.394Z,73.20
2019-03-16T12:40:14.526Z,73.20
2019-03-16T12:42:45.179Z,72.90
2019-03-16T12:45:15.604Z,72.10
2019-03-16T12:47:44.871Z,72.50
2019-03-16T12:50:14.109Z,72.60
2019-03-16T12:52:43.293Z,72.40
2019-03-16T12:55:12.831Z,72.30
2019-03-16T12:57:42.009Z,72.20
2019-03-16T13:00:18.946Z,72.00
2019-03-16T13:02:47.734Z,71.80
2019-03-16T13:05:16.724Z,72.60
2019-03-16T13:07:45.718Z,72.80
2019-03-16T13:10:18.588Z,72.80
2019-03-16T13:12:47.492Z,72.40
2019-03-16T13:15:16.388Z,72.90
2019-03-16T13:17:45.169Z,73.20
2019-03-16T13:20:15.035Z,73.90
2019-03-16T13:22:44.004Z,73.70
2019-03-16T13:25:13.180Z,73.70
2019-03-16T13:27:42.268Z,73.00
2019-03-16T13:30:15.989Z,72.80
2019-03-16T13:32:44.967Z,72.40
2019-03-16T13:35:14.058Z,70.80
2019-03-16T13:37:42.949Z,70.60
2019-03-16T13:40:16.858Z,70.70
2019-03-16T13:42:45.754Z,70.40
2019-03-16T13:45:14.927Z,70.80
2019-03-16T13:47:43.734Z,71.00
2019-03-16T13:50:17.116Z,70.90
2019-03-16T13:52:46.232Z,70.50
2019-03-16T13:55:15.218Z,70.80
2019-03-16T13:57:44.006Z,71.50
2019-03-16T14:00:20.534Z,72.10
2019-03-16T14:02:49.569Z,72.80
2019-03-16T14:05:18.467Z,72.60
2019-03-16T14:07:47.240Z,73.10
2019-03-16T14:10:27.815Z,73.20
2019-03-16T14:12:56.703Z,73.80
2019-03-16T14:15:25.697Z,74.00
2019-03-16T14:17:57.592Z,73.00
2019-03-16T14:20:25.426Z,72.80
2019-03-16T14:23:15.620Z,72.10
2019-03-16T14:25:45.427Z,71.00
2019-03-16T14:28:14.626Z,70.30
2019-03-16T14:30:45.168Z,70.70
2019-03-16T14:33:14.887Z,69.60
2019-03-16T14:35:43.855Z,69.90
2019-03-16T14:38:12.593Z,69.30
2019-03-16T14:40:41.536Z,69.50
2019-03-16T14:45:44.538Z,69.50
2019-03-16T14:48:13.432Z,69.00
2019-03-16T14:50:42.219Z,69.00
2019-03-16T14:53:11.008Z,69.60
2019-03-16T14:55:39.894Z,69.60
2019-03-16T14:58:08.785Z,69.30
2019-03-16T15:00:39.011Z,69.10
2019-03-16T15:03:08.058Z,68.20
2019-03-16T15:05:36.993Z,68.20
2019-03-16T15:08:05.884Z,67.90
2019-03-16T15:10:34.878Z,68.20
2019-03-16T15:13:03.665Z,67.80
2019-03-16T15:15:32.663Z,67.90
2019-03-16T15:18:01.537Z,67.30
2019-03-16T15:20:30.442Z,67.20
2019-03-16T15:22:59.227Z,66.40
2019-03-16T15:25:28.016Z,65.30
2019-03-16T15:27:56.803Z,63.60
2019-03-16T15:30:25.589Z,63.70
2019-03-16T15:32:54.480Z,64.10
2019-03-16T15:35:23.373Z,65.10
2019-03-16T15:37:52.268Z,66.00
2019-03-16T15:40:21.071Z,67.20
2019-03-16T15:42:49.837Z,68.90
2019-03-16T15:45:25.469Z,69.10
2019-03-16T15:47:54.381Z,69.70
2019-03-16T15:50:23.376Z,69.50
2019-03-16T15:52:52.160Z,69.50
2019-03-16T15:55:21.049Z,68.90
2019-03-16T15:57:50.043Z,68.60
2019-03-16T16:00:19.549Z,69.40
2019-03-16T16:02:48.437Z,69.50
2019-03-16T16:05:17.331Z,69.40
2019-03-16T16:07:46.324Z,70.40
2019-03-16T16:10:16.678Z,69.70
2019-03-16T16:12:45.444Z,70.00
2019-03-16T16:15:14.695Z,69.60
2019-03-16T16:17:43.521Z,69.90
2019-03-16T16:20:19.374Z,70.40
2019-03-16T16:22:48.167Z,70.40
2019-03-16T16:25:17.052Z,70.50
2019-03-16T16:27:46.000Z,70.40
2019-03-16T16:30:19.136Z,70.00
2019-03-16T16:32:48.138Z,70.00
2019-03-16T16:35:17.531Z,70.40
2019-03-16T16:37:46.625Z,70.50
2019-03-16T16:40:19.231Z,69.70
2019-03-16T16:42:48.270Z,69.70
2019-03-16T16:45:17.975Z,69.50
2019-03-16T16:47:46.901Z,69.10
2019-03-16T16:50:17.938Z,68.20
2019-03-16T16:52:47.033Z,67.80
2019-03-16T16:55:15.925Z,68.00
2019-03-16T16:57:44.818Z,68.00
2019-03-16T17:00:24.155Z,68.40
2019-03-16T17:02:52.940Z,68.60
2019-03-16T17:05:21.936Z,68.40
2019-03-16T17:07:50.823Z,68.50
2019-03-16T17:10:19.813Z,68.90
2019-03-16T17:12:48.711Z,69.30
2019-03-16T17:15:22.239Z,69.70
2019-03-16T17:17:51.202Z,70.20
2019-03-16T17:20:20.090Z,70.20
2019-03-16T17:22:48.877Z,70.30
2019-03-16T17:25:17.872Z,70.50
2019-03-16T17:27:46.761Z,70.70
2019-03-16T17:30:24.148Z,70.60
2019-03-16T17:32:53.052Z,70.60
2019-03-16T17:35:21.827Z,70.60
2019-03-16T17:37:50.617Z,70.60
2019-03-16T17:40:19.701Z,70.60
2019-03-16T17:42:48.600Z,70.80
2019-03-16T17:45:17.484Z,70.80
2019-03-16T17:47:46.386Z,70.60
2019-03-16T17:50:16.176Z,70.90
2019-03-16T17:52:45.086Z,70.80
2019-03-16T17:55:15.361Z,71.00
2019-03-16T17:57:45.468Z,70.50
2019-03-16T18:00:18.368Z,70.60
2019-03-16T18:02:51.727Z,70.90
2019-03-16T18:05:17.759Z,70.80
2019-03-16T18:07:46.710Z,70.60
2019-03-16T18:10:16.225Z,70.20
2019-03-16T18:12:45.018Z,70.30
2019-03-16T18:15:21.722Z,70.00
2019-03-16T18:17:51.090Z,69.80
2019-03-16T18:20:20.186Z,69.90
2019-03-16T18:22:50.355Z,70.00
2019-03-16T18:25:19.401Z,69.50
2019-03-16T18:27:48.293Z,69.60
2019-03-16T18:30:21.388Z,69.40
2019-03-16T18:32:50.271Z,69.10
2019-03-16T18:35:19.365Z,69.20
2019-03-16T18:37:48.258Z,69.20
2019-03-16T18:40:21.153Z,69.20
2019-03-16T18:42:50.047Z,69.20
2019-03-16T18:45:30.587Z,69.40
2019-03-16T18:47:59.384Z,69.70
2019-03-16T18:50:28.377Z,70.10
2019-03-16T18:52:58.375Z,70.60
2019-03-16T18:55:27.389Z,71.30
2019-03-16T18:57:56.281Z,71.20
2019-03-16T19:00:25.274Z,72.10
2019-03-16T19:02:54.371Z,72.00
2019-03-16T19:05:23.158Z,72.00
2019-03-16T19:07:51.947Z,72.30
2019-03-16T19:10:21.040Z,72.60
2019-03-16T19:12:49.984Z,72.00
2019-03-16T19:15:20.634Z,72.10
2019-03-16T19:17:58.778Z,71.90
2019-03-16T19:20:20.296Z,71.90
2019-03-16T19:22:49.661Z,71.90
2019-03-16T19:25:23.542Z,71.90
2019-03-16T19:27:52.704Z,71.70
2019-03-16T19:30:21.582Z,71.90
2019-03-16T19:32:50.475Z,71.90
2019-03-16T19:35:19.347Z,71.90
2019-03-16T19:37:48.480Z,72.10
2019-03-16T19:40:18.816Z,72.30
2019-03-16T19:42:48.088Z,72.20
2019-03-16T19:45:17.280Z,72.50
2019-03-16T19:47:46.385Z,72.70
2019-03-16T19:50:16.076Z,73.20
2019-03-16T19:52:45.288Z,73.40
2019-03-16T19:55:15.003Z,73.30
2019-03-16T19:57:44.184Z,73.60
2019-03-16T20:00:17.790Z,74.70
2019-03-16T20:02:50.982Z,74.00
2019-03-16T20:05:17.319Z,74.10
2019-03-16T20:07:46.336Z,74.40
2019-03-16T20:10:19.879Z,74.20
2019-03-16T20:12:49.114Z,74.10
2019-03-16T20:15:18.100Z,74.40
2019-03-16T20:17:46.991Z,74.40
2019-03-16T20:20:18.750Z,74.60
2019-03-16T20:22:47.638Z,74.40
2019-03-16T20:25:16.432Z,74.50
2019-03-16T20:27:45.319Z,74.50
2019-03-16T20:30:16.084Z,74.80
2019-03-16T20:32:50.269Z,74.80
2019-03-16T20:35:15.677Z,74.80
2019-03-16T20:37:44.671Z,75.00
2019-03-16T20:40:14.374Z,75.10
2019-03-16T20:42:43.373Z,75.50
2019-03-16T20:45:12.908Z,75.60
2019-03-16T20:47:41.966Z,75.60
2019-03-16T20:50:13.931Z,75.60
2019-03-16T20:52:43.241Z,75.90
2019-03-16T20:55:12.132Z,75.90
2019-03-16T20:57:41.115Z,75.80
2019-03-16T21:00:18.030Z,75.70
2019-03-16T21:02:47.166Z,75.60
2019-03-16T21:05:16.325Z,75.80
2019-03-16T21:07:45.282Z,75.80
2019-03-16T21:10:23.112Z,75.80
2019-03-16T21:13:01.017Z,75.80
2019-03-16T21:15:40.407Z,75.70
2019-03-16T21:18:20.381Z,75.80
2019-03-16T21:20:58.502Z,75.60
2019-03-16T21:23:38.045Z,75.20
2019-03-16T21:26:17.078Z,75.20
2019-03-16T21:28:56.691Z,75.50
2019-03-16T21:31:29.228Z,75.50
2019-03-16T21:34:00.650Z,75.50
2019-03-16T21:36:52.811Z,75.60
2019-03-16T21:39:26.106Z,75.60
2019-03-16T21:41:55.345Z,75.50
2019-03-16T21:44:29.194Z,75.40
2019-03-16T21:47:19.344Z,75.30
2019-03-16T21:49:52.965Z,75.20
2019-03-16T21:52:26.052Z,75.60
2019-03-16T21:54:58.322Z,75.80
2019-03-16T21:57:31.363Z,75.90
2019-03-16T22:00:02.922Z,76.00
2019-03-16T22:02:36.524Z,75.70
2019-03-16T22:05:14.020Z,75.50
2019-03-16T22:07:48.002Z,75.70
2019-03-16T22:10:22.021Z,75.50
2019-03-16T22:12:56.302Z,75.60
2019-03-16T22:15:29.979Z,75.40
2019-03-16T22:18:04.134Z,75.30
2019-03-16T22:20:36.991Z,74.80
2019-03-16T22:23:10.204Z,74.50
2019-03-16T22:25:43.662Z,74.40
2019-03-16T22:28:14.370Z,74.30
2019-03-16T22:30:50.048Z,74.00
2019-03-16T22:33:20.965Z,73.80
2019-03-16T22:35:53.150Z,73.70
2019-03-16T22:38:46.429Z,73.30
2019-03-16T22:41:21.904Z,73.60
2019-03-16T22:43:53.464Z,73.60
2019-03-16T22:46:24.339Z,72.90
2019-03-16T22:48:54.157Z,72.60
2019-03-16T22:51:23.047Z,72.20
2019-03-16T22:53:51.739Z,71.30
2019-03-16T22:56:20.623Z,70.70
2019-03-16T22:58:49.415Z,69.90
2019-03-16T23:01:18.814Z,68.80
2019-03-16T23:03:47.814Z,67.90
2019-03-16T23:06:16.696Z,67.50
2019-03-16T23:12:43.002Z,67.90
2019-03-16T23:18:59.853Z,67.50
2019-03-16T23:21:54.678Z,67.20
2019-03-16T23:24:55.516Z,67.30
2019-03-16T23:27:35.948Z,67.80
2019-03-16T23:37:09.247Z,67.80
2019-03-16T23:39:46.001Z,68.80
2019-03-16T23:42:14.931Z,71.00
2019-03-16T23:50:47.827Z,74.10
2019-03-16T23:53:16.711Z,74.10
2019-03-16T23:55:45.600Z,73.90
2019-03-16T23:58:14.590Z,73.00
